No.8 Fuyo Maru — JD2114 — position and weather

sailwx.info

Track history (hours):
 
Tides and Currents Weather Stations Pressure Air Temp Water Temp Dewpoint Dewpoint Depression Visibility Wind Speed Wind Dir Waves Ship Positions

No.8 Fuyo Maru

Last reported at 2017-Oct-17 12:51 UTC. Time now 2017-Oct-17 13:15 UTC.
Position N 34°57' E 139°44'.

Length 76 m; draft 4 m.

Type: Ship. MMSI: 431602302.

Date/timePositionNaut miles runAvg speedWind from/ knotsBaromVisibWave heightAir tempDewpointWater temp
2017-Oct-17 12:51N 34°57' E 139°44'411.3
2017-Oct-17 12:30N 35°01' E 139°44'510.9
2017-Oct-17 12:00N 35°06' E 139°45'611.1
2017-Oct-17 11:30N 35°11' E 139°46'510.9
2017-Oct-17 11:00N 35°17' E 139°45'510.3
2017-Oct-17 10:30N 35°21' E 139°42'510.6
2017-Oct-17 10:00N 35°26' E 139°45'510.7
2017-Oct-17 09:30N 35°30' E 139°49'4 8.0
2017-Oct-17 09:00N 35°34' E 139°48'3 5.9
2017-Oct-17 08:27N 35°37' E 139°46'0 0.0
2017-Oct-17 07:57N 35°37' E 139°46'0 0.0
2017-Oct-17 07:21N 35°37' E 139°46'0 0.0
2017-Oct-17 06:59N 35°37' E 139°46'0 0.0
2017-Oct-17 06:30N 35°37' E 139°46'0 0.0
2017-Oct-17 05:49N 35°37' E 139°46'0 0.0
2017-Oct-17 05:30N 35°37' E 139°46'0 0.0
2017-Oct-17 05:00N 35°37' E 139°46'0 0.0
2017-Oct-17 04:30N 35°37' E 139°46'0 0.0
2017-Oct-17 03:16N 35°37' E 139°46'0 0.0
2017-Oct-17 03:00N 35°37' E 139°46'0 0.0
2017-Oct-17 02:19N 35°37' E 139°46'0 0.5
2017-Oct-17 01:58N 35°37' E 139°46'4 7.7
2017-Oct-17 01:29N 35°34' E 139°49'1 1.1
2017-Oct-17 00:56N 35°34' E 139°50'0 0.0
2017-Oct-17 00:29N 35°34' E 139°50'0 0.0
2017-Oct-16 18:59N 35°34' E 139°50'0 0.0
2017-Oct-16 18:29N 35°34' E 139°50'0 0.0
2017-Oct-16 17:56N 35°34' E 139°50'0 0.0
2017-Oct-16 17:02N 35°34' E 139°50'0 0.5
2017-Oct-16 16:56N 35°34' E 139°50'0 0.1
2017-Oct-16 16:26N 35°34' E 139°50'0 0.0
2017-Oct-16 14:38N 35°34' E 139°50'0 0.0
2017-Oct-16 13:56N 35°34' E 139°50'0 0.0
2017-Oct-16 13:26N 35°34' E 139°50'0 0.0
2017-Oct-16 12:56N 35°34' E 139°50'0 0.0
2017-Oct-16 12:26N 35°34' E 139°50'0 0.0
2017-Oct-16 11:59N 35°34' E 139°50'0 0.0
2017-Oct-16 11:26N 35°34' E 139°50'0 0.0
2017-Oct-16 10:56N 35°34' E 139°50'0 0.0
2017-Oct-16 10:29N 35°34' E 139°50'0 0.0
2017-Oct-16 09:56N 35°34' E 139°50'0 0.0
2017-Oct-16 09:29N 35°34' E 139°50'0 0.0
2017-Oct-16 08:53N 35°34' E 139°50'0 0.0
2017-Oct-16 08:26N 35°34' E 139°50'0 0.0
2017-Oct-16 07:53N 35°34' E 139°50'0 0.1
2017-Oct-16 07:28N 35°34' E 139°50'3 7.4
2017-Oct-16 07:00N 35°36' E 139°46'0 0.8
2017-Oct-16 06:28N 35°36' E 139°46'0 0.0
2017-Oct-16 06:01N 35°36' E 139°46'1 1.1
2017-Oct-16 05:29N 35°36' E 139°47'3 7.4
2017-Oct-16 05:01N 35°34' E 139°50'0 0.2
2017-Oct-16 04:19N 35°34' E 139°50'0 0.0
2017-Oct-16 03:58N 35°34' E 139°50'0 0.0
2017-Oct-16 03:28N 35°34' E 139°50'0 0.0
2017-Oct-16 02:58N 35°34' E 139°50'0 0.0
2017-Oct-16 02:28N 35°34' E 139°50'0 0.0
2017-Oct-16 01:58N 35°34' E 139°50'0 0.0
2017-Oct-16 01:25N 35°34' E 139°50'0 0.0
2017-Oct-16 00:55N 35°34' E 139°50'0 0.0
2017-Oct-16 00:28N 35°34' E 139°50'0 0.0
2017-Oct-15 23:58N 35°34' E 139°50'0 0.0
2017-Oct-15 23:28N 35°34' E 139°50'0 0.0
2017-Oct-15 22:52N 35°34' E 139°50'0 0.0
2017-Oct-15 22:28N 35°34' E 139°50'0 0.0
2017-Oct-15 21:58N 35°34' E 139°50'0 0.0
2017-Oct-15 21:28N 35°34' E 139°50'0 0.0
2017-Oct-15 20:58N 35°34' E 139°50'0 0.0
2017-Oct-15 20:28N 35°34' E 139°50'0 0.0
2017-Oct-15 19:58N 35°34' E 139°50'0 0.0
2017-Oct-15 19:28N 35°34' E 139°50'0 0.0
2017-Oct-15 18:55N 35°34' E 139°50'0 0.0
2017-Oct-15 18:28N 35°34' E 139°50'0 0.0
2017-Oct-15 17:58N 35°34' E 139°50'0 0.0
2017-Oct-15 17:28N 35°34' E 139°50'0 0.0
2017-Oct-15 16:58N 35°34' E 139°50'0 0.0
2017-Oct-15 16:28N 35°34' E 139°50'0 0.0
2017-Oct-15 15:58N 35°34' E 139°50'0 0.0
2017-Oct-15 15:28N 35°34' E 139°50'0 0.0
2017-Oct-15 14:58N 35°34' E 139°50'0 0.0
2017-Oct-15 13:58N 35°34' E 139°50'0 0.0
2017-Oct-15 13:25N 35°34' E 139°50'0 0.0
2017-Oct-15 12:34N 35°34' E 139°50'0 0.0
2017-Oct-15 12:13N 35°34' E 139°50'0 0.0
2017-Oct-15 11:55N 35°34' E 139°50'0 0.0
2017-Oct-15 11:28N 35°34' E 139°50'0 0.0
2017-Oct-15 10:58N 35°34' E 139°50'0 0.0
2017-Oct-15 10:28N 35°34' E 139°50'0 0.0
2017-Oct-15 09:58N 35°34' E 139°50'0 0.1
2017-Oct-15 09:28N 35°34' E 139°50'0 0.0
2017-Oct-15 08:55N 35°34' E 139°50'0 0.0
2017-Oct-15 08:28N 35°34' E 139°50'2 2.8
2017-Oct-15 07:48N 35°32' E 139°52'3 9.7
2017-Oct-15 07:31N 35°30' E 139°50'5 9.3
2017-Oct-15 07:00N 35°26' E 139°47'5 9.2
2017-Oct-15 06:30N 35°22' E 139°45'4 8.4
2017-Oct-15 06:00N 35°17' E 139°45'4 8.9
2017-Oct-15 05:30N 35°13' E 139°47'5 9.4
2017-Oct-15 05:00N 35°09' E 139°46'510.3
2017-Oct-15 04:30N 35°03' E 139°45'5 9.9
2017-Oct-15 04:00N 34°59' E 139°44'4 8.2
2017-Oct-15 03:30N 34°55' E 139°46'2 0.0
2017-Oct-13 01:17N 34°54' E 139°48'411.9
2017-Oct-13 00:56N 34°57' E 139°45'410.1
2017-Oct-13 00:30N 35°01' E 139°44'510.0
2017-Oct-13 00:00N 35°06' E 139°45'510.4
2017-Oct-12 23:30N 35°11' E 139°46'5 9.8
2017-Oct-12 23:01N 35°16' E 139°45'5 9.7
2017-Oct-12 22:31N 35°20' E 139°42'5 9.9
2017-Oct-12 22:01N 35°25' E 139°44'4 7.6
2017-Oct-12 21:29N 35°29' E 139°46'0 0.0
2017-Oct-12 20:59N 35°29' E 139°46'0 0.0
2017-Oct-12 20:26N 35°29' E 139°46'0 0.0
2017-Oct-12 20:01N 35°29' E 139°46'0 0.1
2017-Oct-12 19:31N 35°29' E 139°46'4 8.6
2017-Oct-12 19:00N 35°32' E 139°50'4 8.2
2017-Oct-12 18:29N 35°36' E 139°47'2 1.4
2017-Oct-12 17:20N 35°37' E 139°46'0 0.0
2017-Oct-12 14:31N 35°37' E 139°46'0 2.9
2017-Oct-12 14:30N 35°37' E 139°46'2 3.9
2017-Oct-12 13:58N 35°35' E 139°47'5 9.8
2017-Oct-12 13:30N 35°32' E 139°52'510.4
2017-Oct-12 13:00N 35°28' E 139°48'510.5
2017-Oct-12 12:30N 35°23' E 139°46'510.1
2017-Oct-12 12:00N 35°18' E 139°45'510.1
2017-Oct-12 11:30N 35°13' E 139°47'510.3
2017-Oct-12 11:00N 35°08' E 139°46'510.4
2017-Oct-12 10:30N 35°04' E 139°42'510.8
2017-Oct-12 10:00N 35°01' E 139°37'711.4
2017-Oct-12 09:26N 34°57' E 139°30'36 0.9
2017-Oct-10 15:42N 35°29' E 139°48'210.3
2017-Oct-10 15:30N 35°28' E 139°47'510.4
2017-Oct-10 15:00N 35°24' E 139°42'1 1.1
2017-Oct-10 13:56N 35°24' E 139°41'0 0.0
2017-Oct-10 13:30N 35°24' E 139°41'0 0.0
2017-Oct-10 12:58N 35°24' E 139°41'0 0.0
2017-Oct-10 12:27N 35°24' E 139°41'0 1.1
2017-Oct-10 12:00N 35°24' E 139°40'0 0.7
2017-Oct-10 11:30N 35°24' E 139°40'1 1.1
2017-Oct-10 10:59N 35°23' E 139°40'0 0.0
2017-Oct-10 10:29N 35°23' E 139°40'0 0.0
2017-Oct-10 09:59N 35°23' E 139°40'0 0.0
2017-Oct-10 07:59N 35°23' E 139°40'0 0.0
2017-Oct-10 07:29N 35°23' E 139°40'0 0.0
2017-Oct-10 06:59N 35°23' E 139°40'0 0.0
2017-Oct-10 06:29N 35°23' E 139°40'0 0.0
2017-Oct-10 05:59N 35°23' E 139°40'0 0.0
2017-Oct-10 05:29N 35°23' E 139°40'0 0.0
2017-Oct-10 04:56N 35°23' E 139°40'0 0.0
2017-Oct-10 04:29N 35°23' E 139°40'0 0.0
2017-Oct-10 03:56N 35°23' E 139°40'0 0.0
2017-Oct-10 03:29N 35°23' E 139°40'0 0.0
2017-Oct-10 02:59N 35°23' E 139°40'0 0.0
2017-Oct-10 02:29N 35°23' E 139°40'0 0.1
2017-Oct-10 01:59N 35°23' E 139°40'0 0.1
2017-Oct-10 01:26N 35°23' E 139°40'0 0.1
2017-Oct-10 00:59N 35°23' E 139°40'0 0.0
2017-Oct-10 00:29N 35°23' E 139°40'0 0.0
2017-Oct-09 23:59N 35°23' E 139°40'0 0.0
2017-Oct-09 23:29N 35°23' E 139°40'0 0.0
2017-Oct-09 22:59N 35°23' E 139°40'0 0.0
2017-Oct-09 22:29N 35°23' E 139°40'0 0.0
2017-Oct-09 21:23N 35°23' E 139°40'0 0.0
2017-Oct-09 20:53N 35°23' E 139°40'0 0.0
2017-Oct-09 20:23N 35°23' E 139°40'0 0.0
2017-Oct-09 19:59N 35°23' E 139°40'0 0.0
2017-Oct-09 19:30N 35°23' E 139°40'2 4.6
2017-Oct-09 19:00N 35°21' E 139°42'510.2
2017-Oct-09 18:30N 35°17' E 139°45'5 9.9
2017-Oct-09 18:00N 35°12' E 139°47'5 9.5
2017-Oct-09 17:30N 35°08' E 139°45'5 9.3
2017-Oct-09 17:00N 35°04' E 139°42'5 9.8
2017-Oct-09 16:30N 35°01' E 139°37'510.1
2017-Oct-09 16:00N 34°58' E 139°32'22 0.7
2017-Oct-08 06:54N 34°48' E 139°08'1710.1
2017-Oct-08 05:13N 34°60' E 139°23'210.7
2017-Oct-08 05:00N 35°01' E 139°26'510.6
2017-Oct-08 04:30N 35°03' E 139°32'611.1
2017-Oct-08 04:00N 35°05' E 139°38'611.7
2017-Oct-08 03:30N 35°09' E 139°43'611.4
2017-Oct-08 03:00N 35°14' E 139°46'511.0
2017-Oct-08 02:30N 35°19' E 139°43'510.4
2017-Oct-08 02:01N 35°24' E 139°41'0 0.8
2017-Oct-08 01:28N 35°24' E 139°41'0 0.0
2017-Oct-08 00:55N 35°24' E 139°41'0 0.0
2017-Oct-08 00:28N 35°24' E 139°41'0 0.0
2017-Oct-07 23:58N 35°24' E 139°41'0 0.0
2017-Oct-07 23:28N 35°24' E 139°41'1 1.3
2017-Oct-07 23:00N 35°23' E 139°40'0 1.0
2017-Oct-07 22:30N 35°23' E 139°40'0 0.0
2017-Oct-07 22:00N 35°23' E 139°40'0 0.0
2017-Oct-07 21:30N 35°23' E 139°40'0 0.0
2017-Oct-07 21:00N 35°23' E 139°40'0 0.0
2017-Oct-07 20:30N 35°23' E 139°40'2 3.2
2017-Oct-07 20:00N 35°22' E 139°42'510.5
2017-Oct-07 19:31N 35°17' E 139°45'510.2
2017-Oct-07 19:00N 35°12' E 139°47'5 9.9
2017-Oct-07 18:30N 35°08' E 139°45'5 9.3
2017-Oct-07 18:00N 35°04' E 139°42'510.4
2017-Oct-07 17:30N 35°01' E 139°37'610.6
2017-Oct-07 16:59N 34°57' E 139°31'  
Track history (hours):
 
Tides and Currents Weather Stations Pressure Air Temp Water Temp Dewpoint Dewpoint Depression Visibility Wind Speed Wind Dir Waves Ship Positions

No.8 Fuyo Maru

Last reported at 2017-Oct-17 12:51 UTC. Time now 2017-Oct-17 13:15 UTC.
Position N 34°57' E 139°44'.

Length 76 m; draft 4 m.

Type: Ship. MMSI: 431602302.

Date/timePositionNaut miles runAvg speedWind from/ knotsBaromVisibWave heightAir tempDewpointWater temp
2017-Oct-17 12:51N 34°57' E 139°44'411.3
2017-Oct-17 12:30N 35°01' E 139°44'510.9
2017-Oct-17 12:00N 35°06' E 139°45'611.1
2017-Oct-17 11:30N 35°11' E 139°46'510.9
2017-Oct-17 11:00N 35°17' E 139°45'510.3
2017-Oct-17 10:30N 35°21' E 139°42'510.6
2017-Oct-17 10:00N 35°26' E 139°45'510.7
2017-Oct-17 09:30N 35°30' E 139°49'4 8.0
2017-Oct-17 09:00N 35°34' E 139°48'3 5.9
2017-Oct-17 08:27N 35°37' E 139°46'0 0.0
2017-Oct-17 07:57N 35°37' E 139°46'0 0.0
2017-Oct-17 07:21N 35°37' E 139°46'0 0.0
2017-Oct-17 06:59N 35°37' E 139°46'0 0.0
2017-Oct-17 06:30N 35°37' E 139°46'0 0.0
2017-Oct-17 05:49N 35°37' E 139°46'0 0.0
2017-Oct-17 05:30N 35°37' E 139°46'0 0.0
2017-Oct-17 05:00N 35°37' E 139°46'0 0.0
2017-Oct-17 04:30N 35°37' E 139°46'0 0.0
2017-Oct-17 03:16N 35°37' E 139°46'0 0.0
2017-Oct-17 03:00N 35°37' E 139°46'0 0.0
2017-Oct-17 02:19N 35°37' E 139°46'0 0.5
2017-Oct-17 01:58N 35°37' E 139°46'4 7.7
2017-Oct-17 01:29N 35°34' E 139°49'1 1.1
2017-Oct-17 00:56N 35°34' E 139°50'0 0.0
2017-Oct-17 00:29N 35°34' E 139°50'0 0.0
2017-Oct-16 18:59N 35°34' E 139°50'0 0.0
2017-Oct-16 18:29N 35°34' E 139°50'0 0.0
2017-Oct-16 17:56N 35°34' E 139°50'0 0.0
2017-Oct-16 17:02N 35°34' E 139°50'0 0.5
2017-Oct-16 16:56N 35°34' E 139°50'0 0.1
2017-Oct-16 16:26N 35°34' E 139°50'0 0.0
2017-Oct-16 14:38N 35°34' E 139°50'0 0.0
2017-Oct-16 13:56N 35°34' E 139°50'0 0.0
2017-Oct-16 13:26N 35°34' E 139°50'0 0.0
2017-Oct-16 12:56N 35°34' E 139°50'0 0.0
2017-Oct-16 12:26N 35°34' E 139°50'0 0.0
2017-Oct-16 11:59N 35°34' E 139°50'0 0.0
2017-Oct-16 11:26N 35°34' E 139°50'0 0.0
2017-Oct-16 10:56N 35°34' E 139°50'0 0.0
2017-Oct-16 10:29N 35°34' E 139°50'0 0.0
2017-Oct-16 09:56N 35°34' E 139°50'0 0.0
2017-Oct-16 09:29N 35°34' E 139°50'0 0.0
2017-Oct-16 08:53N 35°34' E 139°50'0 0.0
2017-Oct-16 08:26N 35°34' E 139°50'0 0.0
2017-Oct-16 07:53N 35°34' E 139°50'0 0.1
2017-Oct-16 07:28N 35°34' E 139°50'3 7.4
2017-Oct-16 07:00N 35°36' E 139°46'0 0.8
2017-Oct-16 06:28N 35°36' E 139°46'0 0.0
2017-Oct-16 06:01N 35°36' E 139°46'1 1.1
2017-Oct-16 05:29N 35°36' E 139°47'3 7.4
2017-Oct-16 05:01N 35°34' E 139°50'0 0.2
2017-Oct-16 04:19N 35°34' E 139°50'0 0.0
2017-Oct-16 03:58N 35°34' E 139°50'0 0.0
2017-Oct-16 03:28N 35°34' E 139°50'0 0.0
2017-Oct-16 02:58N 35°34' E 139°50'0 0.0
2017-Oct-16 02:28N 35°34' E 139°50'0 0.0
2017-Oct-16 01:58N 35°34' E 139°50'0 0.0
2017-Oct-16 01:25N 35°34' E 139°50'0 0.0
2017-Oct-16 00:55N 35°34' E 139°50'0 0.0
2017-Oct-16 00:28N 35°34' E 139°50'0 0.0
2017-Oct-15 23:58N 35°34' E 139°50'0 0.0
2017-Oct-15 23:28N 35°34' E 139°50'0 0.0
2017-Oct-15 22:52N 35°34' E 139°50'0 0.0
2017-Oct-15 22:28N 35°34' E 139°50'0 0.0
2017-Oct-15 21:58N 35°34' E 139°50'0 0.0
2017-Oct-15 21:28N 35°34' E 139°50'0 0.0
2017-Oct-15 20:58N 35°34' E 139°50'0 0.0
2017-Oct-15 20:28N 35°34' E 139°50'0 0.0
2017-Oct-15 19:58N 35°34' E 139°50'0 0.0
2017-Oct-15 19:28N 35°34' E 139°50'0 0.0
2017-Oct-15 18:55N 35°34' E 139°50'0 0.0
2017-Oct-15 18:28N 35°34' E 139°50'0 0.0
2017-Oct-15 17:58N 35°34' E 139°50'0 0.0
2017-Oct-15 17:28N 35°34' E 139°50'0 0.0
2017-Oct-15 16:58N 35°34' E 139°50'0 0.0
2017-Oct-15 16:28N 35°34' E 139°50'0 0.0
2017-Oct-15 15:58N 35°34' E 139°50'0 0.0
2017-Oct-15 15:28N 35°34' E 139°50'0 0.0
2017-Oct-15 14:58N 35°34' E 139°50'0 0.0
2017-Oct-15 13:58N 35°34' E 139°50'0 0.0
2017-Oct-15 13:25N 35°34' E 139°50'0 0.0
2017-Oct-15 12:34N 35°34' E 139°50'0 0.0
2017-Oct-15 12:13N 35°34' E 139°50'0 0.0
2017-Oct-15 11:55N 35°34' E 139°50'0 0.0
2017-Oct-15 11:28N 35°34' E 139°50'0 0.0
2017-Oct-15 10:58N 35°34' E 139°50'0 0.0
2017-Oct-15 10:28N 35°34' E 139°50'0 0.0
2017-Oct-15 09:58N 35°34' E 139°50'0 0.1
2017-Oct-15 09:28N 35°34' E 139°50'0 0.0
2017-Oct-15 08:55N 35°34' E 139°50'0 0.0
2017-Oct-15 08:28N 35°34' E 139°50'2 2.8
2017-Oct-15 07:48N 35°32' E 139°52'3 9.7
2017-Oct-15 07:31N 35°30' E 139°50'5 9.3
2017-Oct-15 07:00N 35°26' E 139°47'5 9.2
2017-Oct-15 06:30N 35°22' E 139°45'4 8.4
2017-Oct-15 06:00N 35°17' E 139°45'4 8.9
2017-Oct-15 05:30N 35°13' E 139°47'5 9.4
2017-Oct-15 05:00N 35°09' E 139°46'510.3
2017-Oct-15 04:30N 35°03' E 139°45'5 9.9
2017-Oct-15 04:00N 34°59' E 139°44'4 8.2
2017-Oct-15 03:30N 34°55' E 139°46'2 0.0
2017-Oct-13 01:17N 34°54' E 139°48'411.9
2017-Oct-13 00:56N 34°57' E 139°45'410.1
2017-Oct-13 00:30N 35°01' E 139°44'510.0
2017-Oct-13 00:00N 35°06' E 139°45'510.4
2017-Oct-12 23:30N 35°11' E 139°46'5 9.8
2017-Oct-12 23:01N 35°16' E 139°45'5 9.7
2017-Oct-12 22:31N 35°20' E 139°42'5 9.9
2017-Oct-12 22:01N 35°25' E 139°44'4 7.6
2017-Oct-12 21:29N 35°29' E 139°46'0 0.0
2017-Oct-12 20:59N 35°29' E 139°46'0 0.0
2017-Oct-12 20:26N 35°29' E 139°46'0 0.0
2017-Oct-12 20:01N 35°29' E 139°46'0 0.1
2017-Oct-12 19:31N 35°29' E 139°46'4 8.6
2017-Oct-12 19:00N 35°32' E 139°50'4 8.2
2017-Oct-12 18:29N 35°36' E 139°47'2 1.4
2017-Oct-12 17:20N 35°37' E 139°46'0 0.0
2017-Oct-12 14:31N 35°37' E 139°46'0 2.9
2017-Oct-12 14:30N 35°37' E 139°46'2 3.9
2017-Oct-12 13:58N 35°35' E 139°47'5 9.8
2017-Oct-12 13:30N 35°32' E 139°52'510.4
2017-Oct-12 13:00N 35°28' E 139°48'510.5
2017-Oct-12 12:30N 35°23' E 139°46'510.1
2017-Oct-12 12:00N 35°18' E 139°45'510.1
2017-Oct-12 11:30N 35°13' E 139°47'510.3
2017-Oct-12 11:00N 35°08' E 139°46'510.4
2017-Oct-12 10:30N 35°04' E 139°42'510.8
2017-Oct-12 10:00N 35°01' E 139°37'711.4
2017-Oct-12 09:26N 34°57' E 139°30'36 0.9
2017-Oct-10 15:42N 35°29' E 139°48'210.3
2017-Oct-10 15:30N 35°28' E 139°47'510.4
2017-Oct-10 15:00N 35°24' E 139°42'1 1.1
2017-Oct-10 13:56N 35°24' E 139°41'0 0.0
2017-Oct-10 13:30N 35°24' E 139°41'0 0.0
2017-Oct-10 12:58N 35°24' E 139°41'0 0.0
2017-Oct-10 12:27N 35°24' E 139°41'0 1.1
2017-Oct-10 12:00N 35°24' E 139°40'0 0.7
2017-Oct-10 11:30N 35°24' E 139°40'1 1.1
2017-Oct-10 10:59N 35°23' E 139°40'0 0.0
2017-Oct-10 10:29N 35°23' E 139°40'0 0.0
2017-Oct-10 09:59N 35°23' E 139°40'0 0.0
2017-Oct-10 07:59N 35°23' E 139°40'0 0.0
2017-Oct-10 07:29N 35°23' E 139°40'0 0.0
2017-Oct-10 06:59N 35°23' E 139°40'0 0.0
2017-Oct-10 06:29N 35°23' E 139°40'0 0.0
2017-Oct-10 05:59N 35°23' E 139°40'0 0.0
2017-Oct-10 05:29N 35°23' E 139°40'0 0.0
2017-Oct-10 04:56N 35°23' E 139°40'0 0.0
2017-Oct-10 04:29N 35°23' E 139°40'0 0.0
2017-Oct-10 03:56N 35°23' E 139°40'0 0.0
2017-Oct-10 03:29N 35°23' E 139°40'0 0.0
2017-Oct-10 02:59N 35°23' E 139°40'0 0.0
2017-Oct-10 02:29N 35°23' E 139°40'0 0.1
2017-Oct-10 01:59N 35°23' E 139°40'0 0.1
2017-Oct-10 01:26N 35°23' E 139°40'0 0.1
2017-Oct-10 00:59N 35°23' E 139°40'0 0.0
2017-Oct-10 00:29N 35°23' E 139°40'0 0.0
2017-Oct-09 23:59N 35°23' E 139°40'0 0.0
2017-Oct-09 23:29N 35°23' E 139°40'0 0.0
2017-Oct-09 22:59N 35°23' E 139°40'0 0.0
2017-Oct-09 22:29N 35°23' E 139°40'0 0.0
2017-Oct-09 21:23N 35°23' E 139°40'0 0.0
2017-Oct-09 20:53N 35°23' E 139°40'0 0.0
2017-Oct-09 20:23N 35°23' E 139°40'0 0.0
2017-Oct-09 19:59N 35°23' E 139°40'0 0.0
2017-Oct-09 19:30N 35°23' E 139°40'2 4.6
2017-Oct-09 19:00N 35°21' E 139°42'510.2
2017-Oct-09 18:30N 35°17' E 139°45'5 9.9
2017-Oct-09 18:00N 35°12' E 139°47'5 9.5
2017-Oct-09 17:30N 35°08' E 139°45'5 9.3
2017-Oct-09 17:00N 35°04' E 139°42'5 9.8
2017-Oct-09 16:30N 35°01' E 139°37'510.1
2017-Oct-09 16:00N 34°58' E 139°32'22 0.7
2017-Oct-08 06:54N 34°48' E 139°08'1710.1
2017-Oct-08 05:13N 34°60' E 139°23'210.7
2017-Oct-08 05:00N 35°01' E 139°26'510.6
2017-Oct-08 04:30N 35°03' E 139°32'611.1
2017-Oct-08 04:00N 35°05' E 139°38'611.7
2017-Oct-08 03:30N 35°09' E 139°43'611.4
2017-Oct-08 03:00N 35°14' E 139°46'511.0
2017-Oct-08 02:30N 35°19' E 139°43'510.4
2017-Oct-08 02:01N 35°24' E 139°41'0 0.8
2017-Oct-08 01:28N 35°24' E 139°41'0 0.0
2017-Oct-08 00:55N 35°24' E 139°41'0 0.0
2017-Oct-08 00:28N 35°24' E 139°41'0 0.0
2017-Oct-07 23:58N 35°24' E 139°41'0 0.0
2017-Oct-07 23:28N 35°24' E 139°41'1 1.3
2017-Oct-07 23:00N 35°23' E 139°40'0 1.0
2017-Oct-07 22:30N 35°23' E 139°40'0 0.0
2017-Oct-07 22:00N 35°23' E 139°40'0 0.0
2017-Oct-07 21:30N 35°23' E 139°40'0 0.0
2017-Oct-07 21:00N 35°23' E 139°40'0 0.0
2017-Oct-07 20:30N 35°23' E 139°40'2 3.2
2017-Oct-07 20:00N 35°22' E 139°42'510.5
2017-Oct-07 19:31N 35°17' E 139°45'510.2
2017-Oct-07 19:00N 35°12' E 139°47'5 9.9
2017-Oct-07 18:30N 35°08' E 139°45'5 9.3
2017-Oct-07 18:00N 35°04' E 139°42'510.4
2017-Oct-07 17:30N 35°01' E 139°37'610.6
2017-Oct-07 16:59N 34°57' E 139°31'  

Dump ship's entire track history